createdAt,value
2023-04-25T00:00:54.069Z,94.18
2023-04-25T00:03:25.706Z,94.27
2023-04-25T00:05:57.327Z,93.51
2023-04-25T00:08:28.832Z,93.48
2023-04-25T00:11:00.587Z,92.88
2023-04-25T00:13:32.033Z,92.93
2023-04-25T00:16:04.018Z,92.99
2023-04-25T00:18:35.600Z,92.71
2023-04-25T00:21:07.348Z,92.92
2023-04-25T00:23:38.826Z,92.92
2023-04-25T00:26:10.295Z,93.13
2023-04-25T00:28:41.912Z,92.91
2023-04-25T00:31:13.369Z,93.00
2023-04-25T00:33:45.359Z,92.68
2023-04-25T00:36:16.942Z,92.56
2023-04-25T00:38:48.711Z,93.36
2023-04-25T00:41:20.160Z,92.90
2023-04-25T00:43:51.927Z,92.57
2023-04-25T00:46:23.560Z,92.95
2023-04-25T00:48:55.063Z,93.37
2023-04-25T00:51:26.525Z,93.09
2023-04-25T00:53:58.291Z,92.86
2023-04-25T00:56:29.742Z,92.92
2023-04-25T00:59:01.654Z,92.84
2023-04-25T01:01:33.239Z,93.07
2023-04-25T01:04:04.849Z,92.50
2023-04-25T01:06:36.579Z,93.07
2023-04-25T01:09:08.315Z,91.94
2023-04-25T01:11:39.776Z,92.65
2023-04-25T01:14:11.532Z,92.47
2023-04-25T01:16:43.011Z,92.71
2023-04-25T01:19:14.937Z,92.23
2023-04-25T01:21:46.382Z,92.60
2023-04-25T01:24:18.010Z,93.01
2023-04-25T01:26:49.432Z,93.34
2023-04-25T01:29:21.195Z,93.30
2023-04-25T01:31:52.687Z,93.26
2023-04-25T01:34:24.488Z,93.53
2023-04-25T01:36:55.958Z,93.33
2023-04-25T01:39:27.589Z,93.34
2023-04-25T01:41:59.025Z,93.98
2023-04-25T01:44:30.788Z,94.24
2023-04-25T01:47:02.270Z,94.47
2023-04-25T01:49:34.046Z,95.11
2023-04-25T01:52:05.482Z,94.35
2023-04-25T01:54:37.374Z,94.83
2023-04-25T01:57:08.818Z,94.71
2023-04-25T01:59:40.624Z,94.94
2023-04-25T02:02:12.094Z,95.11
2023-04-25T02:04:44.089Z,94.56
2023-04-25T02:07:15.580Z,94.52
2023-04-25T02:09:47.357Z,94.92
2023-04-25T02:12:18.822Z,94.45
2023-04-25T02:14:50.584Z,95.22
2023-04-25T02:17:22.022Z,95.03
2023-04-25T02:19:53.794Z,94.21
2023-04-25T02:22:25.249Z,94.44
2023-04-25T02:24:56.757Z,95.40
2023-04-25T02:27:28.219Z,95.03
2023-04-25T02:29:59.883Z,96.26
2023-04-25T02:32:31.375Z,95.39
2023-04-25T02:35:02.815Z,94.76
2023-04-25T02:37:34.260Z,95.55
2023-04-25T02:40:06.229Z,95.14
2023-04-25T02:42:37.693Z,95.34
2023-04-25T02:45:09.398Z,95.01
2023-04-25T02:47:40.901Z,95.94
2023-04-25T02:50:12.731Z,95.51
2023-04-25T02:52:44.496Z,95.68
2023-04-25T02:55:15.949Z,95.59
2023-04-25T02:57:47.707Z,95.63
2023-04-25T03:00:19.159Z,95.50
2023-04-25T03:02:50.692Z,95.21
2023-04-25T03:05:22.250Z,95.49
2023-04-25T03:07:53.712Z,95.55
2023-04-25T03:10:25.166Z,95.80
2023-04-25T03:12:56.883Z,95.62
2023-04-25T03:15:28.743Z,94.81
2023-04-25T03:18:00.245Z,95.51
2023-04-25T03:20:31.816Z,95.39
2023-04-25T03:23:03.275Z,95.41
2023-04-25T03:25:35.118Z,95.54
2023-04-25T03:28:06.561Z,95.16
2023-04-25T03:30:38.294Z,95.21
2023-04-25T03:33:09.770Z,95.13
2023-04-25T03:35:41.512Z,94.85
2023-04-25T03:38:12.953Z,95.13
2023-04-25T03:40:44.819Z,95.03
2023-04-25T03:43:16.265Z,94.25
2023-04-25T03:45:50.885Z,94.56
2023-04-25T03:48:22.425Z,94.75
2023-04-25T03:50:54.517Z,94.60
2023-04-25T03:53:25.968Z,94.94
2023-04-25T03:55:57.724Z,95.42
2023-04-25T03:58:29.171Z,95.24
2023-04-25T04:01:00.951Z,95.49
2023-04-25T04:03:32.485Z,95.72
2023-04-25T04:06:04.469Z,95.35
2023-04-25T04:08:35.910Z,95.98
2023-04-25T04:11:07.679Z,95.48
2023-04-25T04:13:39.128Z,95.27
2023-04-25T04:16:10.692Z,95.01
2023-04-25T04:18:42.508Z,95.17
2023-04-25T04:21:13.959Z,95.61
2023-04-25T04:23:45.438Z,95.54
2023-04-25T04:26:16.890Z,96.24
2023-04-25T04:28:48.485Z,96.55
2023-04-25T04:31:20.003Z,96.93
2023-04-25T04:33:51.761Z,96.99
2023-04-25T04:36:23.469Z,96.81
2023-04-25T04:38:54.929Z,96.92
2023-04-25T04:41:26.394Z,96.90
2023-04-25T04:43:58.180Z,95.81
2023-04-25T04:46:29.674Z,95.87
2023-04-25T04:49:01.751Z,94.71
2023-04-25T04:51:33.203Z,96.13
2023-04-25T04:54:05.091Z,95.02
2023-04-25T04:56:36.571Z,94.81
2023-04-25T04:59:08.402Z,94.93
2023-04-25T05:01:40.081Z,94.92
2023-04-25T05:04:11.653Z,95.11
2023-04-25T05:06:43.561Z,94.66
2023-04-25T05:09:15.018Z,95.15
2023-04-25T05:11:46.861Z,96.10
2023-04-25T05:14:18.308Z,95.59
2023-04-25T05:16:50.288Z,95.75
2023-04-25T05:19:21.841Z,94.44
2023-04-25T05:21:53.292Z,94.34
2023-04-25T05:24:24.730Z,94.42
2023-04-25T05:26:56.574Z,93.72
2023-04-25T05:29:28.052Z,94.39
2023-04-25T05:31:59.914Z,95.75
2023-04-25T05:34:31.393Z,95.21
2023-04-25T05:37:03.191Z,95.12
2023-04-25T05:39:34.631Z,94.42
2023-04-25T05:42:06.514Z,92.11
2023-04-25T05:44:37.949Z,92.90
2023-04-25T05:47:09.496Z,92.56
2023-04-25T05:49:40.982Z,91.30
2023-04-25T05:52:12.991Z,92.61
2023-04-25T05:54:44.455Z,92.77
2023-04-25T05:57:16.212Z,94.10
2023-04-25T05:59:47.668Z,94.29
2023-04-25T06:02:19.207Z,93.13
2023-04-25T06:04:50.781Z,93.27
2023-04-25T06:07:22.720Z,93.35
2023-04-25T06:09:54.197Z,92.25
2023-04-25T06:12:25.997Z,93.42
2023-04-25T06:14:57.467Z,93.10
2023-04-25T06:17:28.954Z,93.50
2023-04-25T06:20:00.655Z,93.13
2023-04-25T06:22:32.452Z,93.53
2023-04-25T06:25:04.264Z,92.90
2023-04-25T06:27:36.067Z,92.34
2023-04-25T06:30:07.503Z,91.59
2023-04-25T06:32:39.304Z,92.42
2023-04-25T06:35:10.757Z,92.79
2023-04-25T06:37:42.209Z,93.99
2023-04-25T06:40:13.650Z,95.16
2023-04-25T06:42:45.466Z,92.99
2023-04-25T06:45:16.998Z,93.15
2023-04-25T06:47:48.805Z,93.44
2023-04-25T06:50:20.300Z,93.62
2023-04-25T06:55:23.220Z,93.44
2023-04-25T06:57:54.693Z,94.27
2023-04-25T07:00:26.166Z,94.48
2023-04-25T07:02:58.071Z,93.32
2023-04-25T07:05:30.053Z,94.29
2023-04-25T07:08:01.952Z,92.69
2023-04-25T07:10:33.650Z,94.70
2023-04-25T07:13:05.464Z,95.82
2023-04-25T07:15:36.937Z,95.57
2023-04-25T07:18:08.623Z,97.80
2023-04-25T07:20:40.102Z,99.20
2023-04-25T07:23:11.965Z,99.55
2023-04-25T07:25:43.431Z,99.48
2023-04-25T07:28:15.829Z,100.00
2023-04-25T07:30:48.395Z,100.00
2023-04-25T07:33:20.449Z,100.00
2023-04-25T07:35:51.903Z,100.00
2023-04-25T07:38:23.639Z,100.00
2023-04-25T07:40:55.128Z,100.00
2023-04-25T07:43:27.006Z,97.03
2023-04-25T07:45:58.548Z,94.42
2023-04-25T07:48:30.068Z,94.21
2023-04-25T07:51:01.535Z,96.22
2023-04-25T07:56:22.384Z,93.61
2023-04-25T07:58:54.264Z,92.31
2023-04-25T08:01:25.899Z,91.83
2023-04-25T08:03:57.683Z,92.92
2023-04-25T08:06:29.511Z,90.65
2023-04-25T08:09:01.130Z,90.37
2023-04-25T08:11:32.578Z,87.78
2023-04-25T08:14:04.247Z,85.81
2023-04-25T08:16:35.721Z,84.24
2023-04-25T08:19:07.670Z,84.91
2023-04-25T08:21:39.207Z,85.72
2023-04-25T08:24:11.070Z,83.15
2023-04-25T08:26:42.540Z,78.70
2023-04-25T08:29:14.297Z,74.85
2023-04-25T08:31:45.878Z,73.35
2023-04-25T08:34:17.708Z,70.82
2023-04-25T08:36:49.305Z,67.05
2023-04-25T08:39:21.125Z,65.36
2023-04-25T08:41:52.681Z,64.58
2023-04-25T08:44:24.358Z,64.33
2023-04-25T08:46:55.829Z,63.80
2023-04-25T08:49:27.719Z,61.46
2023-04-25T08:51:59.199Z,60.47
2023-04-25T08:54:35.635Z,59.97
2023-04-25T08:57:07.940Z,57.12
2023-04-25T08:59:39.762Z,55.06
2023-04-25T09:02:11.247Z,57.11
2023-04-25T09:04:42.791Z,55.98
2023-04-25T09:07:14.233Z,54.30
2023-04-25T09:09:46.004Z,53.13
2023-04-25T09:12:17.456Z,49.35
2023-04-25T09:14:49.294Z,48.23
2023-04-25T09:17:20.760Z,50.69
2023-04-25T09:19:52.269Z,47.77
2023-04-25T09:22:23.783Z,48.89
2023-04-25T09:24:55.315Z,48.52
2023-04-25T09:27:26.856Z,47.41
2023-04-25T09:29:58.878Z,49.13
2023-04-25T09:32:30.557Z,49.52
2023-04-25T09:35:02.341Z,46.46
2023-04-25T09:37:33.851Z,45.97
2023-04-25T09:40:05.574Z,49.07
2023-04-25T09:42:37.571Z,47.08
2023-04-25T09:45:09.254Z,44.86
2023-04-25T09:47:40.834Z,47.71
2023-04-25T09:50:13.447Z,48.33
2023-04-25T09:52:44.893Z,46.27
2023-04-25T09:55:16.390Z,49.50
2023-04-25T09:57:47.841Z,46.61
2023-04-25T10:00:19.709Z,47.39
2023-04-25T10:02:51.214Z,48.21
2023-04-25T10:05:22.910Z,47.74
2023-04-25T10:07:54.386Z,48.70
2023-04-25T10:10:26.247Z,47.93
2023-04-25T10:12:57.701Z,46.79
2023-04-25T10:15:29.503Z,48.14
2023-04-25T10:18:01.014Z,47.78
2023-04-25T10:20:32.890Z,46.82
2023-04-25T10:23:04.326Z,46.13
2023-04-25T10:25:36.068Z,47.46
2023-04-25T10:28:07.624Z,47.81
2023-04-25T10:30:39.341Z,46.54
2023-04-25T10:33:10.866Z,47.69
2023-04-25T10:35:42.342Z,46.75
2023-04-25T10:38:13.847Z,45.07
2023-04-25T10:40:45.304Z,42.92
2023-04-25T10:43:16.757Z,42.87
2023-04-25T10:45:48.270Z,44.75
2023-04-25T10:48:19.731Z,46.26
2023-04-25T10:50:51.254Z,47.08
2023-04-25T10:53:22.724Z,48.61
2023-04-25T10:55:54.188Z,48.90
2023-04-25T10:58:25.635Z,47.85
2023-04-25T11:00:57.884Z,47.19
2023-04-25T11:03:29.561Z,45.56
2023-04-25T11:06:02.288Z,45.71
2023-04-25T11:08:33.744Z,45.45
2023-04-25T11:11:05.635Z,44.65
2023-04-25T11:13:37.138Z,46.20
2023-04-25T11:16:13.215Z,45.19
2023-04-25T11:18:44.981Z,46.65
2023-04-25T11:21:16.694Z,47.74
2023-04-25T11:23:48.486Z,45.96
2023-04-25T11:26:20.336Z,48.08
2023-04-25T11:28:51.875Z,48.01
2023-04-25T11:31:24.057Z,48.67
2023-04-25T11:33:55.615Z,48.90
2023-04-25T11:36:27.559Z,48.65
2023-04-25T11:38:59.329Z,48.17
2023-04-25T11:41:30.770Z,47.78
2023-04-25T11:44:02.569Z,48.16
2023-04-25T11:46:34.102Z,46.49
2023-04-25T11:49:06.006Z,45.55
2023-04-25T11:51:37.475Z,45.15
2023-04-25T11:54:09.256Z,44.60
2023-04-25T11:56:40.708Z,43.82
2023-04-25T11:59:12.968Z,43.07
2023-04-25T12:01:44.792Z,43.07
2023-04-25T12:04:16.829Z,43.65
2023-04-25T12:06:48.736Z,43.65
2023-04-25T12:09:20.619Z,43.25
2023-04-25T12:11:52.073Z,43.88
2023-04-25T12:14:23.940Z,45.28
2023-04-25T12:16:55.444Z,45.24
2023-04-25T12:19:27.206Z,44.80
2023-04-25T12:22:00.560Z,45.47
2023-04-25T12:24:32.357Z,46.15
2023-04-25T12:27:03.908Z,44.41
2023-04-25T12:29:48.564Z,42.58
2023-04-25T12:32:21.118Z,41.68
2023-04-25T12:34:52.666Z,43.03
2023-04-25T12:37:24.152Z,42.21
2023-04-25T12:39:55.613Z,41.62
2023-04-25T12:42:27.063Z,41.70
2023-04-25T12:44:59.171Z,40.18
2023-04-25T12:47:30.688Z,39.34
2023-04-25T12:50:02.474Z,39.83
2023-04-25T12:52:33.949Z,41.85
2023-04-25T12:55:05.797Z,42.31
2023-04-25T12:57:37.293Z,42.91
2023-04-25T13:00:09.236Z,42.45
2023-04-25T13:02:40.888Z,43.19
2023-04-25T13:05:12.727Z,43.38
2023-04-25T13:07:44.333Z,45.10
2023-04-25T13:10:16.148Z,44.64
2023-04-25T13:12:47.639Z,44.26
2023-04-25T13:15:19.113Z,45.11
2023-04-25T13:17:50.768Z,42.63
2023-04-25T13:20:22.596Z,43.15
2023-04-25T13:22:54.074Z,42.82
2023-04-25T13:25:25.562Z,41.20
2023-04-25T13:27:57.033Z,41.01
2023-04-25T13:30:28.854Z,40.19
2023-04-25T13:33:00.362Z,41.59
2023-04-25T13:35:32.193Z,41.12
2023-04-25T13:38:03.662Z,41.76
2023-04-25T13:40:35.500Z,43.04
2023-04-25T13:43:06.933Z,42.19
2023-04-25T13:45:38.783Z,42.58
2023-04-25T13:48:10.264Z,43.97
2023-04-25T13:50:42.000Z,42.51
2023-04-25T13:53:13.468Z,43.47
2023-04-25T13:55:45.289Z,44.76
2023-04-25T13:58:16.785Z,43.22
2023-04-25T14:00:48.516Z,44.82
2023-04-25T14:03:20.064Z,45.37
2023-04-25T14:05:51.668Z,45.55
2023-04-25T14:08:23.134Z,46.58
2023-04-25T14:10:54.634Z,46.54
2023-04-25T14:13:26.138Z,46.71
2023-04-25T14:15:58.017Z,47.62
2023-04-25T14:18:29.503Z,48.92
2023-04-25T14:21:01.323Z,50.10
2023-04-25T14:23:32.777Z,50.96
2023-04-25T14:26:04.697Z,49.69
2023-04-25T14:28:36.195Z,49.56
2023-04-25T14:31:08.036Z,49.41
2023-04-25T14:33:39.504Z,50.18
2023-04-25T14:36:11.377Z,49.89
2023-04-25T14:38:42.932Z,50.62
2023-04-25T14:41:14.623Z,49.92
2023-04-25T14:43:46.191Z,49.56
2023-04-25T14:46:17.947Z,49.16
2023-04-25T14:48:49.506Z,48.30
2023-04-25T14:51:21.388Z,47.56
2023-04-25T14:53:53.001Z,47.57
2023-04-25T14:56:24.884Z,47.38
2023-04-25T14:58:56.370Z,46.13
2023-04-25T15:01:28.101Z,46.79
2023-04-25T15:03:59.981Z,47.09
2023-04-25T15:06:31.827Z,46.82
2023-04-25T15:09:03.309Z,47.37
2023-04-25T15:11:35.133Z,47.51
2023-04-25T15:14:06.697Z,48.36
2023-04-25T15:16:38.519Z,48.52
2023-04-25T15:19:09.993Z,49.73
2023-04-25T15:21:41.814Z,51.15
2023-04-25T15:24:13.278Z,49.68
2023-04-25T15:26:45.058Z,50.75
2023-04-25T15:29:16.521Z,50.39
2023-04-25T15:31:48.434Z,50.85
2023-04-25T15:34:20.226Z,49.53
2023-04-25T15:36:51.677Z,49.94
2023-04-25T15:39:23.433Z,49.94
2023-04-25T15:41:54.900Z,49.31
2023-04-25T15:44:26.406Z,48.83
2023-04-25T15:46:57.889Z,47.95
2023-04-25T15:49:29.741Z,48.35
2023-04-25T15:52:01.204Z,50.64
2023-04-25T15:54:32.711Z,49.83
2023-04-25T15:57:04.163Z,50.29
2023-04-25T15:59:35.667Z,51.17
2023-04-25T16:02:07.164Z,50.68
2023-04-25T16:04:38.884Z,51.79
2023-04-25T16:07:10.407Z,51.45
2023-04-25T16:09:42.188Z,51.67
2023-04-25T16:12:13.699Z,51.51
2023-04-25T16:14:45.457Z,52.18
2023-04-25T16:17:16.942Z,51.89
2023-04-25T16:19:48.801Z,51.98
2023-04-25T16:22:20.250Z,52.70
2023-04-25T16:24:51.715Z,53.54
2023-04-25T16:27:23.165Z,52.41
2023-04-25T16:29:54.665Z,52.00
2023-04-25T16:32:26.173Z,53.46
2023-04-25T16:34:59.004Z,52.17
2023-04-25T16:37:30.659Z,52.83
2023-04-25T16:40:02.158Z,52.83
2023-04-25T16:42:33.645Z,54.72
2023-04-25T16:45:05.496Z,56.28
2023-04-25T16:47:37.053Z,57.51
2023-04-25T16:50:08.737Z,56.49
2023-04-25T16:52:40.539Z,57.58
2023-04-25T16:55:12.397Z,57.99
2023-04-25T16:57:43.891Z,57.60
2023-04-25T17:00:15.430Z,57.32
2023-04-25T17:02:47.279Z,56.59
2023-04-25T17:05:19.077Z,55.59
2023-04-25T17:07:50.531Z,54.65
2023-04-25T17:10:22.371Z,54.05
2023-04-25T17:12:53.855Z,53.27
2023-04-25T17:15:25.489Z,53.70
2023-04-25T17:17:57.295Z,53.08
2023-04-25T17:20:29.037Z,53.44
2023-04-25T17:23:00.557Z,52.83
2023-04-25T17:25:32.070Z,53.52
2023-04-25T17:28:03.635Z,54.71
2023-04-25T17:30:35.601Z,55.23
2023-04-25T17:33:07.300Z,55.72
2023-04-25T17:35:38.900Z,55.68
2023-04-25T17:38:10.465Z,54.46
2023-04-25T17:40:42.268Z,55.95
2023-04-25T17:43:13.769Z,56.88
2023-04-25T17:45:45.334Z,57.88
2023-04-25T17:48:16.822Z,57.96
2023-04-25T17:50:48.459Z,57.95
2023-04-25T17:53:20.024Z,58.94
2023-04-25T17:55:51.539Z,59.41
2023-04-25T17:58:23.020Z,59.76
2023-04-25T18:00:54.549Z,60.44
2023-04-25T18:03:26.183Z,61.66
2023-04-25T18:05:57.794Z,61.67
2023-04-25T18:08:29.289Z,61.91
2023-04-25T18:11:01.049Z,62.44
2023-04-25T18:13:32.718Z,63.24
2023-04-25T18:16:04.308Z,63.41
2023-04-25T18:18:36.180Z,63.56
2023-04-25T18:21:08.278Z,64.76
2023-04-25T18:23:39.738Z,63.85
2023-04-25T18:26:11.199Z,64.42
2023-04-25T18:28:43.006Z,64.94
2023-04-25T18:31:14.505Z,65.48
2023-04-25T18:33:49.437Z,66.31
2023-04-25T18:36:21.070Z,67.29
2023-04-25T18:38:55.203Z,68.68
2023-04-25T18:44:06.132Z,69.45
2023-04-25T18:46:37.614Z,70.35
2023-04-25T18:49:09.442Z,69.57
2023-04-25T18:51:41.018Z,68.99
2023-04-25T18:54:12.699Z,68.53
2023-04-25T18:56:44.208Z,68.27
2023-04-25T18:59:15.708Z,68.33
2023-04-25T19:01:47.277Z,68.44
2023-04-25T19:04:19.168Z,67.93
2023-04-25T19:06:50.748Z,69.08
2023-04-25T19:09:22.638Z,69.04
2023-04-25T19:11:54.162Z,67.44
2023-04-25T19:14:25.775Z,67.95
2023-04-25T19:16:57.297Z,69.00
2023-04-25T19:19:28.811Z,67.97
2023-04-25T19:22:00.329Z,69.36
2023-04-25T19:24:33.918Z,68.74
2023-04-25T19:27:06.141Z,67.23
2023-04-25T19:29:37.971Z,67.39
2023-04-25T19:32:09.422Z,67.01
2023-04-25T19:34:41.221Z,67.58
2023-04-25T19:37:12.752Z,68.09
2023-04-25T19:39:44.515Z,68.75
2023-04-25T19:42:15.999Z,68.31
2023-04-25T19:44:47.557Z,68.76
2023-04-25T19:47:19.145Z,68.44
2023-04-25T19:49:50.705Z,69.99
2023-04-25T19:52:22.171Z,69.25
2023-04-25T19:54:53.639Z,69.89
2023-04-25T19:57:25.122Z,69.00
2023-04-25T19:59:56.606Z,69.30
2023-04-25T20:02:28.165Z,69.72
2023-04-25T20:05:00.090Z,70.12
2023-04-25T20:07:31.594Z,70.73
2023-04-25T20:10:03.094Z,70.30
2023-04-25T20:12:34.543Z,71.13
2023-04-25T20:15:06.308Z,70.16
2023-04-25T20:17:37.847Z,70.66
2023-04-25T20:20:09.421Z,70.80
2023-04-25T20:22:40.927Z,71.19
2023-04-25T20:25:12.766Z,71.49
2023-04-25T20:27:44.266Z,72.68
2023-04-25T20:30:15.770Z,73.39
2023-04-25T20:32:47.273Z,74.03
2023-04-25T20:35:19.061Z,74.17
2023-04-25T20:37:50.522Z,74.70
2023-04-25T20:40:22.158Z,75.90
2023-04-25T20:42:53.600Z,76.13
2023-04-25T20:45:25.408Z,75.89
2023-04-25T20:47:56.960Z,76.50
2023-04-25T20:50:28.776Z,77.04
2023-04-25T20:53:00.249Z,77.42
2023-04-25T20:55:32.354Z,77.09
2023-04-25T20:58:03.834Z,77.67
2023-04-25T21:00:35.813Z,78.07
2023-04-25T21:03:07.905Z,77.96
2023-04-25T21:05:39.505Z,78.17
2023-04-25T21:08:10.971Z,78.72
2023-04-25T21:10:42.467Z,77.95
2023-04-25T21:13:14.415Z,78.31
2023-04-25T21:15:45.908Z,77.86
2023-04-25T21:18:17.878Z,76.75
2023-04-25T21:20:49.374Z,76.86
2023-04-25T21:23:21.167Z,76.96
2023-04-25T21:25:52.606Z,76.67
2023-04-25T21:28:24.276Z,76.00
2023-04-25T21:30:55.777Z,76.29
2023-04-25T21:33:27.592Z,76.05
2023-04-25T21:35:59.053Z,77.09
2023-04-25T21:38:30.524Z,78.01
2023-04-25T21:41:01.991Z,77.91
2023-04-25T21:43:33.723Z,78.46
2023-04-25T21:48:39.794Z,79.67
2023-04-25T21:51:11.240Z,80.17
2023-04-25T21:53:43.116Z,81.02
2023-04-25T21:56:14.569Z,81.22
2023-04-25T21:58:46.367Z,81.19
2023-04-25T22:01:17.897Z,81.29
2023-04-25T22:03:49.670Z,81.77
2023-04-25T22:06:21.314Z,80.40
2023-04-25T22:08:53.078Z,80.66
2023-04-25T22:11:24.786Z,79.72
2023-04-25T22:13:56.258Z,79.33
2023-04-25T22:16:27.917Z,79.12
2023-04-25T22:18:59.798Z,79.74
2023-04-25T22:21:32.078Z,79.05
2023-04-25T22:24:03.554Z,79.25
2023-04-25T22:26:34.999Z,79.92
2023-04-25T22:29:07.721Z,79.64
2023-04-25T22:31:39.618Z,78.27
2023-04-25T22:34:11.787Z,78.62
2023-04-25T22:36:43.535Z,78.40
2023-04-25T22:39:15.389Z,78.77
2023-04-25T22:41:47.017Z,78.27
2023-04-25T22:44:19.618Z,78.91
2023-04-25T22:46:51.245Z,79.34
2023-04-25T22:49:23.009Z,80.04
2023-04-25T22:51:54.486Z,80.53
2023-04-25T22:54:25.986Z,81.27
2023-04-25T22:56:57.680Z,81.32
2023-04-25T22:59:29.924Z,81.87
2023-04-25T23:02:01.436Z,82.70
2023-04-25T23:04:33.757Z,83.52
2023-04-25T23:07:06.124Z,83.79
2023-04-25T23:09:38.302Z,83.57
2023-04-25T23:12:10.077Z,84.76
2023-04-25T23:14:42.182Z,85.17
2023-04-25T23:17:13.770Z,84.34
2023-04-25T23:19:45.555Z,85.38
2023-04-25T23:22:16.991Z,85.67
2023-04-25T23:24:49.251Z,86.20
2023-04-25T23:27:20.716Z,87.13
2023-04-25T23:29:52.359Z,86.62
2023-04-25T23:32:24.074Z,87.06
2023-04-25T23:34:55.646Z,87.78
2023-04-25T23:37:27.419Z,88.03
2023-04-25T23:39:59.882Z,88.20
2023-04-25T23:42:31.341Z,88.48
2023-04-25T23:45:03.941Z,88.74
2023-04-25T23:47:35.516Z,89.42
2023-04-25T23:50:07.241Z,89.28
2023-04-25T23:52:38.752Z,89.71
2023-04-25T23:55:10.527Z,89.82
2023-04-25T23:57:41.976Z,89.50
